sensor_id;sensor_type;location;lat;lon;timestamp;P1;durP1;ratioP1;P2;durP2;ratioP2
17451;SDS011;8843;48.838;9.324;2022-07-29T00:01:58;3.80;;;3.47;;
17451;SDS011;8843;48.838;9.324;2022-07-29T00:04:25;3.70;;;3.40;;
17451;SDS011;8843;48.838;9.324;2022-07-29T00:06:52;3.83;;;3.50;;
17451;SDS011;8843;48.838;9.324;2022-07-29T00:09:19;4.10;;;3.70;;
17451;SDS011;8843;48.838;9.324;2022-07-29T00:11:46;4.50;;;3.63;;
17451;SDS011;8843;48.838;9.324;2022-07-29T00:14:13;3.97;;;3.57;;
17451;SDS011;8843;48.838;9.324;2022-07-29T00:16:40;3.53;;;3.23;;
17451;SDS011;8843;48.838;9.324;2022-07-29T00:19:08;5.10;;;3.13;;
17451;SDS011;8843;48.838;9.324;2022-07-29T00:21:35;5.43;;;3.67;;
17451;SDS011;8843;48.838;9.324;2022-07-29T00:24:02;3.40;;;3.10;;
17451;SDS011;8843;48.838;9.324;2022-07-29T00:26:30;3.80;;;3.50;;
17451;SDS011;8843;48.838;9.324;2022-07-29T00:28:58;4.30;;;3.90;;
17451;SDS011;8843;48.838;9.324;2022-07-29T00:31:25;5.10;;;3.60;;
17451;SDS011;8843;48.838;9.324;2022-07-29T00:33:52;5.47;;;3.83;;
17451;SDS011;8843;48.838;9.324;2022-07-29T00:36:20;4.00;;;3.57;;
17451;SDS011;8843;48.838;9.324;2022-07-29T00:38:46;3.53;;;3.23;;
17451;SDS011;8843;48.838;9.324;2022-07-29T00:41:13;3.80;;;3.40;;
17451;SDS011;8843;48.838;9.324;2022-07-29T00:43:40;6.23;;;3.70;;
17451;SDS011;8843;48.838;9.324;2022-07-29T00:46:07;4.03;;;3.63;;
17451;SDS011;8843;48.838;9.324;2022-07-29T00:48:34;4.10;;;3.50;;
17451;SDS011;8843;48.838;9.324;2022-07-29T00:51:02;3.70;;;3.40;;
17451;SDS011;8843;48.838;9.324;2022-07-29T00:53:33;6.10;;;3.87;;
17451;SDS011;8843;48.838;9.324;2022-07-29T00:56:01;3.87;;;3.50;;
17451;SDS011;8843;48.838;9.324;2022-07-29T00:58:28;3.77;;;3.47;;
17451;SDS011;8843;48.838;9.324;2022-07-29T01:00:55;4.57;;;3.47;;
17451;SDS011;8843;48.838;9.324;2022-07-29T01:03:23;4.53;;;3.40;;
17451;SDS011;8843;48.838;9.324;2022-07-29T01:05:50;3.60;;;3.30;;
17451;SDS011;8843;48.838;9.324;2022-07-29T01:08:18;3.30;;;3.00;;
17451;SDS011;8843;48.838;9.324;2022-07-29T01:10:48;4.27;;;3.70;;
17451;SDS011;8843;48.838;9.324;2022-07-29T01:13:16;3.73;;;3.43;;
17451;SDS011;8843;48.838;9.324;2022-07-29T01:15:46;4.77;;;3.73;;
17451;SDS011;8843;48.838;9.324;2022-07-29T01:18:18;4.77;;;3.57;;
17451;SDS011;8843;48.838;9.324;2022-07-29T01:20:55;4.47;;;3.23;;
17451;SDS011;8843;48.838;9.324;2022-07-29T01:23:51;4.00;;;3.60;;
17451;SDS011;8843;48.838;9.324;2022-07-29T01:26:37;6.60;;;3.73;;
17451;SDS011;8843;48.838;9.324;2022-07-29T01:29:12;6.20;;;3.50;;
17451;SDS011;8843;48.838;9.324;2022-07-29T01:31:48;3.83;;;3.50;;
17451;SDS011;8843;48.838;9.324;2022-07-29T01:34:21;4.23;;;3.43;;
17451;SDS011;8843;48.838;9.324;2022-07-29T01:36:55;5.30;;;3.50;;
17451;SDS011;8843;48.838;9.324;2022-07-29T01:39:30;3.93;;;3.57;;
17451;SDS011;8843;48.838;9.324;2022-07-29T01:42:01;4.13;;;3.83;;
17451;SDS011;8843;48.838;9.324;2022-07-29T01:44:39;3.67;;;3.33;;
17451;SDS011;8843;48.838;9.324;2022-07-29T01:47:15;4.73;;;3.70;;
17451;SDS011;8843;48.838;9.324;2022-07-29T01:49:47;4.07;;;3.67;;
17451;SDS011;8843;48.838;9.324;2022-07-29T01:52:19;4.07;;;3.67;;
17451;SDS011;8843;48.838;9.324;2022-07-29T01:54:51;3.80;;;3.50;;
17451;SDS011;8843;48.838;9.324;2022-07-29T01:57:21;4.10;;;3.70;;
17451;SDS011;8843;48.838;9.324;2022-07-29T01:59:54;3.60;;;3.30;;
17451;SDS011;8843;48.838;9.324;2022-07-29T02:02:23;4.17;;;3.77;;
17451;SDS011;8843;48.838;9.324;2022-07-29T02:04:52;4.30;;;3.80;;
17451;SDS011;8843;48.838;9.324;2022-07-29T02:07:21;3.80;;;3.50;;
17451;SDS011;8843;48.838;9.324;2022-07-29T02:09:49;3.93;;;3.40;;
17451;SDS011;8843;48.838;9.324;2022-07-29T02:12:17;4.00;;;3.70;;
17451;SDS011;8843;48.838;9.324;2022-07-29T02:14:46;4.07;;;3.67;;
17451;SDS011;8843;48.838;9.324;2022-07-29T02:17:17;4.57;;;3.77;;
17451;SDS011;8843;48.838;9.324;2022-07-29T02:19:50;3.93;;;3.57;;
17451;SDS011;8843;48.838;9.324;2022-07-29T02:22:19;4.90;;;3.77;;
17451;SDS011;8843;48.838;9.324;2022-07-29T02:24:48;4.27;;;3.87;;
17451;SDS011;8843;48.838;9.324;2022-07-29T02:27:17;5.40;;;3.90;;
17451;SDS011;8843;48.838;9.324;2022-07-29T02:29:46;9.60;;;3.67;;
17451;SDS011;8843;48.838;9.324;2022-07-29T02:32:13;3.70;;;3.40;;
17451;SDS011;8843;48.838;9.324;2022-07-29T02:34:42;5.13;;;3.63;;
17451;SDS011;8843;48.838;9.324;2022-07-29T02:37:11;4.87;;;3.70;;
17451;SDS011;8843;48.838;9.324;2022-07-29T02:39:39;4.20;;;3.80;;
17451;SDS011;8843;48.838;9.324;2022-07-29T02:42:10;4.73;;;3.77;;
17451;SDS011;8843;48.838;9.324;2022-07-29T02:44:39;3.90;;;3.60;;
17451;SDS011;8843;48.838;9.324;2022-07-29T02:47:07;4.10;;;3.50;;
17451;SDS011;8843;48.838;9.324;2022-07-29T02:49:42;4.03;;;3.03;;
17451;SDS011;8843;48.838;9.324;2022-07-29T02:52:18;5.03;;;3.03;;
17451;SDS011;8843;48.838;9.324;2022-07-29T02:54:51;6.57;;;3.53;;
17451;SDS011;8843;48.838;9.324;2022-07-29T02:57:22;5.00;;;4.13;;
17451;SDS011;8843;48.838;9.324;2022-07-29T02:59:57;4.07;;;3.67;;
17451;SDS011;8843;48.838;9.324;2022-07-29T03:02:28;4.93;;;3.40;;
17451;SDS011;8843;48.838;9.324;2022-07-29T03:04:59;3.77;;;3.37;;
17451;SDS011;8843;48.838;9.324;2022-07-29T03:07:27;4.83;;;3.90;;
17451;SDS011;8843;48.838;9.324;2022-07-29T03:09:55;4.93;;;3.70;;
17451;SDS011;8843;48.838;9.324;2022-07-29T03:12:22;5.20;;;3.93;;
17451;SDS011;8843;48.838;9.324;2022-07-29T03:14:51;4.97;;;4.20;;
17451;SDS011;8843;48.838;9.324;2022-07-29T03:17:18;4.43;;;4.03;;
17451;SDS011;8843;48.838;9.324;2022-07-29T03:19:46;4.10;;;3.80;;
17451;SDS011;8843;48.838;9.324;2022-07-29T03:22:15;4.40;;;3.93;;
17451;SDS011;8843;48.838;9.324;2022-07-29T03:24:42;4.40;;;4.00;;
17451;SDS011;8843;48.838;9.324;2022-07-29T03:27:09;4.60;;;4.10;;
17451;SDS011;8843;48.838;9.324;2022-07-29T03:29:36;5.47;;;3.70;;
17451;SDS011;8843;48.838;9.324;2022-07-29T03:32:04;5.17;;;3.67;;
17451;SDS011;8843;48.838;9.324;2022-07-29T03:34:31;4.43;;;4.03;;
17451;SDS011;8843;48.838;9.324;2022-07-29T03:36:58;4.80;;;4.07;;
17451;SDS011;8843;48.838;9.324;2022-07-29T03:39:27;5.80;;;4.30;;
17451;SDS011;8843;48.838;9.324;2022-07-29T03:41:57;4.97;;;3.60;;
17451;SDS011;8843;48.838;9.324;2022-07-29T03:44:27;4.50;;;4.07;;
17451;SDS011;8843;48.838;9.324;2022-07-29T03:46:55;4.30;;;3.90;;
17451;SDS011;8843;48.838;9.324;2022-07-29T03:49:25;3.70;;;3.40;;
17451;SDS011;8843;48.838;9.324;2022-07-29T03:51:53;3.60;;;3.30;;
17451;SDS011;8843;48.838;9.324;2022-07-29T03:54:21;4.53;;;3.87;;
17451;SDS011;8843;48.838;9.324;2022-07-29T03:56:49;5.43;;;4.13;;
17451;SDS011;8843;48.838;9.324;2022-07-29T03:59:18;4.70;;;4.30;;
17451;SDS011;8843;48.838;9.324;2022-07-29T04:01:48;4.83;;;4.33;;
17451;SDS011;8843;48.838;9.324;2022-07-29T04:04:16;5.13;;;3.87;;
17451;SDS011;8843;48.838;9.324;2022-07-29T04:06:43;4.50;;;3.90;;
17451;SDS011;8843;48.838;9.324;2022-07-29T04:09:11;4.10;;;3.70;;
17451;SDS011;8843;48.838;9.324;2022-07-29T04:11:39;5.33;;;4.53;;
17451;SDS011;8843;48.838;9.324;2022-07-29T04:14:08;4.37;;;3.70;;
17451;SDS011;8843;48.838;9.324;2022-07-29T04:16:35;4.40;;;4.00;;
17451;SDS011;8843;48.838;9.324;2022-07-29T04:19:02;6.40;;;4.23;;
17451;SDS011;8843;48.838;9.324;2022-07-29T04:21:28;4.30;;;3.77;;
17451;SDS011;8843;48.838;9.324;2022-07-29T04:23:55;6.40;;;4.10;;
17451;SDS011;8843;48.838;9.324;2022-07-29T04:26:22;4.90;;;4.50;;
17451;SDS011;8843;48.838;9.324;2022-07-29T04:28:49;6.23;;;4.03;;
17451;SDS011;8843;48.838;9.324;2022-07-29T04:31:17;4.80;;;4.40;;
17451;SDS011;8843;48.838;9.324;2022-07-29T04:33:44;5.10;;;4.60;;
17451;SDS011;8843;48.838;9.324;2022-07-29T04:36:11;4.97;;;4.33;;
17451;SDS011;8843;48.838;9.324;2022-07-29T04:38:38;5.07;;;4.57;;
17451;SDS011;8843;48.838;9.324;2022-07-29T04:41:05;4.93;;;3.77;;
17451;SDS011;8843;48.838;9.324;2022-07-29T04:43:33;4.43;;;4.03;;
17451;SDS011;8843;48.838;9.324;2022-07-29T04:46:00;5.33;;;4.20;;
17451;SDS011;8843;48.838;9.324;2022-07-29T04:48:28;4.70;;;4.20;;
17451;SDS011;8843;48.838;9.324;2022-07-29T04:50:56;4.50;;;4.10;;
17451;SDS011;8843;48.838;9.324;2022-07-29T04:53:23;3.97;;;3.57;;
17451;SDS011;8843;48.838;9.324;2022-07-29T04:55:50;5.13;;;4.23;;
17451;SDS011;8843;48.838;9.324;2022-07-29T04:58:17;4.67;;;4.13;;
17451;SDS011;8843;48.838;9.324;2022-07-29T05:00:44;4.17;;;3.70;;
17451;SDS011;8843;48.838;9.324;2022-07-29T05:03:11;7.00;;;4.43;;
17451;SDS011;8843;48.838;9.324;2022-07-29T05:05:39;4.20;;;3.80;;
17451;SDS011;8843;48.838;9.324;2022-07-29T05:08:07;4.87;;;4.10;;
17451;SDS011;8843;48.838;9.324;2022-07-29T05:10:34;5.17;;;4.23;;
17451;SDS011;8843;48.838;9.324;2022-07-29T05:13:03;5.40;;;4.70;;
17451;SDS011;8843;48.838;9.324;2022-07-29T05:15:31;4.63;;;3.97;;
17451;SDS011;8843;48.838;9.324;2022-07-29T05:17:58;4.13;;;3.83;;
17451;SDS011;8843;48.838;9.324;2022-07-29T05:20:25;4.37;;;4.00;;
17451;SDS011;8843;48.838;9.324;2022-07-29T05:22:54;6.27;;;4.53;;
17451;SDS011;8843;48.838;9.324;2022-07-29T05:25:22;5.07;;;4.17;;
17451;SDS011;8843;48.838;9.324;2022-07-29T05:27:49;4.30;;;3.97;;
17451;SDS011;8843;48.838;9.324;2022-07-29T05:30:16;4.63;;;4.10;;
17451;SDS011;8843;48.838;9.324;2022-07-29T05:32:43;5.13;;;4.30;;
17451;SDS011;8843;48.838;9.324;2022-07-29T05:35:10;4.53;;;3.67;;
17451;SDS011;8843;48.838;9.324;2022-07-29T05:37:37;5.77;;;4.33;;
17451;SDS011;8843;48.838;9.324;2022-07-29T05:40:05;4.80;;;3.90;;
17451;SDS011;8843;48.838;9.324;2022-07-29T05:42:33;4.73;;;4.33;;
17451;SDS011;8843;48.838;9.324;2022-07-29T05:45:00;4.83;;;3.90;;
17451;SDS011;8843;48.838;9.324;2022-07-29T05:47:28;4.50;;;4.10;;
17451;SDS011;8843;48.838;9.324;2022-07-29T05:49:55;6.33;;;4.40;;
17451;SDS011;8843;48.838;9.324;2022-07-29T05:52:22;4.73;;;4.20;;
17451;SDS011;8843;48.838;9.324;2022-07-29T05:54:49;6.30;;;4.33;;
17451;SDS011;8843;48.838;9.324;2022-07-29T05:57:18;6.67;;;4.20;;
17451;SDS011;8843;48.838;9.324;2022-07-29T05:59:46;6.30;;;3.70;;
17451;SDS011;8843;48.838;9.324;2022-07-29T06:02:13;9.20;;;4.83;;
17451;SDS011;8843;48.838;9.324;2022-07-29T06:04:40;4.33;;;3.97;;
17451;SDS011;8843;48.838;9.324;2022-07-29T06:07:08;4.73;;;4.20;;
17451;SDS011;8843;48.838;9.324;2022-07-29T06:09:35;4.07;;;3.53;;
17451;SDS011;8843;48.838;9.324;2022-07-29T06:12:02;4.77;;;4.17;;
17451;SDS011;8843;48.838;9.324;2022-07-29T06:14:31;4.07;;;3.77;;
17451;SDS011;8843;48.838;9.324;2022-07-29T06:16:58;4.33;;;3.30;;
17451;SDS011;8843;48.838;9.324;2022-07-29T06:19:25;3.70;;;3.40;;
17451;SDS011;8843;48.838;9.324;2022-07-29T06:21:52;3.97;;;3.67;;
17451;SDS011;8843;48.838;9.324;2022-07-29T06:24:19;3.63;;;3.33;;
17451;SDS011;8843;48.838;9.324;2022-07-29T06:26:46;3.90;;;3.40;;
17451;SDS011;8843;48.838;9.324;2022-07-29T06:29:13;4.13;;;3.30;;
17451;SDS011;8843;48.838;9.324;2022-07-29T06:31:41;4.50;;;3.93;;
17451;SDS011;8843;48.838;9.324;2022-07-29T06:34:08;4.00;;;3.70;;
17451;SDS011;8843;48.838;9.324;2022-07-29T06:36:35;4.13;;;3.37;;
17451;SDS011;8843;48.838;9.324;2022-07-29T06:39:03;4.13;;;3.50;;
17451;SDS011;8843;48.838;9.324;2022-07-29T06:41:31;3.83;;;3.40;;
17451;SDS011;8843;48.838;9.324;2022-07-29T06:43:58;4.60;;;3.80;;
17451;SDS011;8843;48.838;9.324;2022-07-29T06:46:25;3.27;;;3.00;;
17451;SDS011;8843;48.838;9.324;2022-07-29T06:48:54;3.67;;;3.37;;
17451;SDS011;8843;48.838;9.324;2022-07-29T06:51:21;3.00;;;2.80;;
17451;SDS011;8843;48.838;9.324;2022-07-29T06:53:48;4.23;;;3.03;;
17451;SDS011;8843;48.838;9.324;2022-07-29T06:56:15;5.50;;;3.27;;
17451;SDS011;8843;48.838;9.324;2022-07-29T06:58:42;3.20;;;2.90;;
17451;SDS011;8843;48.838;9.324;2022-07-29T07:01:08;3.10;;;2.80;;
17451;SDS011;8843;48.838;9.324;2022-07-29T07:03:35;3.50;;;3.20;;
17451;SDS011;8843;48.838;9.324;2022-07-29T07:06:04;3.30;;;3.00;;
17451;SDS011;8843;48.838;9.324;2022-07-29T07:08:31;3.37;;;2.83;;
17451;SDS011;8843;48.838;9.324;2022-07-29T07:10:58;3.03;;;2.83;;
17451;SDS011;8843;48.838;9.324;2022-07-29T07:13:25;4.00;;;3.03;;
17451;SDS011;8843;48.838;9.324;2022-07-29T07:15:53;3.47;;;3.03;;
17451;SDS011;8843;48.838;9.324;2022-07-29T07:18:20;3.10;;;2.90;;
17451;SDS011;8843;48.838;9.324;2022-07-29T07:20:47;3.10;;;2.90;;
17451;SDS011;8843;48.838;9.324;2022-07-29T07:23:15;3.20;;;2.83;;
17451;SDS011;8843;48.838;9.324;2022-07-29T07:25:42;3.60;;;3.30;;
17451;SDS011;8843;48.838;9.324;2022-07-29T07:28:09;3.13;;;2.93;;
17451;SDS011;8843;48.838;9.324;2022-07-29T07:30:36;3.67;;;2.90;;
17451;SDS011;8843;48.838;9.324;2022-07-29T07:33:03;3.20;;;2.93;;
17451;SDS011;8843;48.838;9.324;2022-07-29T07:35:30;3.03;;;2.63;;
17451;SDS011;8843;48.838;9.324;2022-07-29T07:37:57;4.27;;;3.43;;
17451;SDS011;8843;48.838;9.324;2022-07-29T07:40:25;3.10;;;2.80;;
17451;SDS011;8843;48.838;9.324;2022-07-29T07:42:52;4.50;;;3.30;;
17451;SDS011;8843;48.838;9.324;2022-07-29T07:45:19;3.27;;;2.97;;
17451;SDS011;8843;48.838;9.324;2022-07-29T07:47:46;3.87;;;3.07;;
17451;SDS011;8843;48.838;9.324;2022-07-29T07:50:13;5.20;;;3.07;;
17451;SDS011;8843;48.838;9.324;2022-07-29T07:52:46;3.23;;;3.03;;
17451;SDS011;8843;48.838;9.324;2022-07-29T07:55:14;3.03;;;2.83;;
17451;SDS011;8843;48.838;9.324;2022-07-29T07:57:43;3.40;;;3.07;;
17451;SDS011;8843;48.838;9.324;2022-07-29T08:00:11;3.50;;;3.20;;
17451;SDS011;8843;48.838;9.324;2022-07-29T08:02:39;3.80;;;3.30;;
17451;SDS011;8843;48.838;9.324;2022-07-29T08:05:07;4.23;;;2.90;;
17451;SDS011;8843;48.838;9.324;2022-07-29T08:07:36;2.80;;;2.60;;
17451;SDS011;8843;48.838;9.324;2022-07-29T08:10:03;3.53;;;3.07;;
17451;SDS011;8843;48.838;9.324;2022-07-29T08:12:31;2.90;;;2.60;;
17451;SDS011;8843;48.838;9.324;2022-07-29T08:14:59;3.77;;;3.20;;
17451;SDS011;8843;48.838;9.324;2022-07-29T08:17:26;3.53;;;3.23;;
17451;SDS011;8843;48.838;9.324;2022-07-29T08:19:53;4.03;;;3.40;;
17451;SDS011;8843;48.838;9.324;2022-07-29T08:22:20;3.30;;;3.03;;
17451;SDS011;8843;48.838;9.324;2022-07-29T08:24:47;3.27;;;3.07;;
17451;SDS011;8843;48.838;9.324;2022-07-29T08:27:19;3.83;;;3.30;;
17451;SDS011;8843;48.838;9.324;2022-07-29T08:29:46;3.77;;;3.10;;
17451;SDS011;8843;48.838;9.324;2022-07-29T08:32:14;3.80;;;3.20;;
17451;SDS011;8843;48.838;9.324;2022-07-29T08:34:41;5.20;;;3.30;;
17451;SDS011;8843;48.838;9.324;2022-07-29T08:37:11;3.87;;;3.47;;
17451;SDS011;8843;48.838;9.324;2022-07-29T08:39:38;4.23;;;3.30;;
17451;SDS011;8843;48.838;9.324;2022-07-29T08:42:06;3.33;;;3.03;;
17451;SDS011;8843;48.838;9.324;2022-07-29T08:44:33;4.30;;;3.10;;
17451;SDS011;8843;48.838;9.324;2022-07-29T08:47:00;3.83;;;3.53;;
17451;SDS011;8843;48.838;9.324;2022-07-29T08:49:29;3.73;;;2.87;;
17451;SDS011;8843;48.838;9.324;2022-07-29T08:51:56;4.17;;;3.40;;
17451;SDS011;8843;48.838;9.324;2022-07-29T08:54:24;5.07;;;3.70;;
17451;SDS011;8843;48.838;9.324;2022-07-29T08:56:52;4.53;;;4.03;;
17451;SDS011;8843;48.838;9.324;2022-07-29T08:59:20;4.40;;;3.07;;
17451;SDS011;8843;48.838;9.324;2022-07-29T09:01:52;3.43;;;3.13;;
17451;SDS011;8843;48.838;9.324;2022-07-29T09:04:20;4.47;;;3.70;;
17451;SDS011;8843;48.838;9.324;2022-07-29T09:06:51;3.90;;;3.30;;
17451;SDS011;8843;48.838;9.324;2022-07-29T09:09:19;6.00;;;3.10;;
17451;SDS011;8843;48.838;9.324;2022-07-29T09:11:46;5.60;;;3.30;;
17451;SDS011;8843;48.838;9.324;2022-07-29T09:14:13;3.40;;;3.10;;
17451;SDS011;8843;48.838;9.324;2022-07-29T09:16:44;3.83;;;3.50;;
17451;SDS011;8843;48.838;9.324;2022-07-29T09:19:25;3.23;;;2.77;;
17451;SDS011;8843;48.838;9.324;2022-07-29T09:21:55;4.03;;;3.63;;
17451;SDS011;8843;48.838;9.324;2022-07-29T09:24:23;4.27;;;3.30;;
17451;SDS011;8843;48.838;9.324;2022-07-29T09:26:52;3.40;;;3.10;;
17451;SDS011;8843;48.838;9.324;2022-07-29T09:29:19;5.97;;;3.60;;
17451;SDS011;8843;48.838;9.324;2022-07-29T09:31:48;3.50;;;3.20;;
17451;SDS011;8843;48.838;9.324;2022-07-29T09:34:16;5.53;;;3.60;;
17451;SDS011;8843;48.838;9.324;2022-07-29T09:36:48;5.20;;;3.63;;
17451;SDS011;8843;48.838;9.324;2022-07-29T09:39:26;3.40;;;3.10;;
17451;SDS011;8843;48.838;9.324;2022-07-29T09:41:55;6.47;;;3.43;;
17451;SDS011;8843;48.838;9.324;2022-07-29T09:44:40;5.00;;;3.70;;
17451;SDS011;8843;48.838;9.324;2022-07-29T09:47:08;3.50;;;3.20;;
17451;SDS011;8843;48.838;9.324;2022-07-29T09:49:36;7.47;;;3.60;;
17451;SDS011;8843;48.838;9.324;2022-07-29T09:52:16;5.87;;;4.07;;
17451;SDS011;8843;48.838;9.324;2022-07-29T09:54:45;4.53;;;3.60;;
17451;SDS011;8843;48.838;9.324;2022-07-29T09:57:22;6.87;;;3.87;;
17451;SDS011;8843;48.838;9.324;2022-07-29T09:59:55;5.10;;;4.07;;
17451;SDS011;8843;48.838;9.324;2022-07-29T10:02:27;7.63;;;3.47;;
17451;SDS011;8843;48.838;9.324;2022-07-29T10:04:55;4.30;;;3.90;;
17451;SDS011;8843;48.838;9.324;2022-07-29T10:07:23;4.00;;;3.60;;
17451;SDS011;8843;48.838;9.324;2022-07-29T10:09:53;4.37;;;3.97;;
17451;SDS011;8843;48.838;9.324;2022-07-29T10:12:22;4.50;;;4.03;;
17451;SDS011;8843;48.838;9.324;2022-07-29T10:14:49;4.63;;;3.53;;
17451;SDS011;8843;48.838;9.324;2022-07-29T10:17:17;7.03;;;3.50;;
17451;SDS011;8843;48.838;9.324;2022-07-29T10:19:44;6.07;;;3.70;;
17451;SDS011;8843;48.838;9.324;2022-07-29T10:22:12;4.40;;;3.13;;
17451;SDS011;8843;48.838;9.324;2022-07-29T10:24:38;5.40;;;3.53;;
17451;SDS011;8843;48.838;9.324;2022-07-29T10:27:07;3.90;;;3.60;;
17451;SDS011;8843;48.838;9.324;2022-07-29T10:29:35;3.80;;;3.50;;
17451;SDS011;8843;48.838;9.324;2022-07-29T10:32:07;6.17;;;3.80;;
17451;SDS011;8843;48.838;9.324;2022-07-29T10:34:51;4.27;;;3.80;;
17451;SDS011;8843;48.838;9.324;2022-07-29T10:37:48;3.80;;;3.40;;
17451;SDS011;8843;48.838;9.324;2022-07-29T10:40:50;4.33;;;3.70;;
17451;SDS011;8843;48.838;9.324;2022-07-29T10:43:43;4.90;;;3.50;;
17451;SDS011;8843;48.838;9.324;2022-07-29T10:46:12;4.43;;;4.00;;
17451;SDS011;8843;48.838;9.324;2022-07-29T10:57:25;3.83;;;3.53;;
17451;SDS011;8843;48.838;9.324;2022-07-29T11:02:53;4.20;;;3.90;;
17451;SDS011;8843;48.838;9.324;2022-07-29T11:05:23;5.30;;;3.90;;
17451;SDS011;8843;48.838;9.324;2022-07-29T11:10:46;6.13;;;4.30;;
17451;SDS011;8843;48.838;9.324;2022-07-29T11:13:22;8.43;;;3.67;;
17451;SDS011;8843;48.838;9.324;2022-07-29T11:16:16;4.40;;;4.00;;
17451;SDS011;8843;48.838;9.324;2022-07-29T11:21:47;6.57;;;4.10;;
17451;SDS011;8843;48.838;9.324;2022-07-29T11:24:16;5.40;;;4.20;;
17451;SDS011;8843;48.838;9.324;2022-07-29T11:26:46;4.90;;;4.27;;
17451;SDS011;8843;48.838;9.324;2022-07-29T11:29:38;4.53;;;4.13;;
17451;SDS011;8843;48.838;9.324;2022-07-29T11:32:12;6.07;;;4.53;;
17451;SDS011;8843;48.838;9.324;2022-07-29T11:34:41;7.73;;;5.60;;
17451;SDS011;8843;48.838;9.324;2022-07-29T11:37:18;6.10;;;5.40;;
17451;SDS011;8843;48.838;9.324;2022-07-29T11:39:47;7.17;;;5.17;;
17451;SDS011;8843;48.838;9.324;2022-07-29T11:42:38;8.27;;;5.67;;
17451;SDS011;8843;48.838;9.324;2022-07-29T11:45:07;10.03;;;6.03;;
17451;SDS011;8843;48.838;9.324;2022-07-29T11:47:37;8.30;;;6.33;;
17451;SDS011;8843;48.838;9.324;2022-07-29T11:50:06;9.07;;;6.73;;
17451;SDS011;8843;48.838;9.324;2022-07-29T11:52:34;6.97;;;5.67;;
17451;SDS011;8843;48.838;9.324;2022-07-29T11:55:08;10.63;;;7.23;;
17451;SDS011;8843;48.838;9.324;2022-07-29T11:57:37;7.00;;;5.80;;
17451;SDS011;8843;48.838;9.324;2022-07-29T12:00:12;5.47;;;4.90;;
17451;SDS011;8843;48.838;9.324;2022-07-29T12:02:47;4.90;;;4.10;;
17451;SDS011;8843;48.838;9.324;2022-07-29T12:05:15;7.73;;;4.97;;
17451;SDS011;8843;48.838;9.324;2022-07-29T12:07:43;7.70;;;4.90;;
17451;SDS011;8843;48.838;9.324;2022-07-29T12:10:10;7.83;;;5.30;;
17451;SDS011;8843;48.838;9.324;2022-07-29T12:12:37;5.57;;;4.93;;
17451;SDS011;8843;48.838;9.324;2022-07-29T12:15:11;4.97;;;4.47;;
17451;SDS011;8843;48.838;9.324;2022-07-29T12:17:39;5.50;;;3.97;;
17451;SDS011;8843;48.838;9.324;2022-07-29T12:20:08;4.97;;;3.60;;
17451;SDS011;8843;48.838;9.324;2022-07-29T12:22:35;4.33;;;3.30;;
17451;SDS011;8843;48.838;9.324;2022-07-29T12:25:06;3.77;;;3.30;;
17451;SDS011;8843;48.838;9.324;2022-07-29T12:27:34;4.23;;;2.90;;
17451;SDS011;8843;48.838;9.324;2022-07-29T12:30:04;4.00;;;3.10;;
17451;SDS011;8843;48.838;9.324;2022-07-29T12:32:32;4.17;;;2.43;;
17451;SDS011;8843;48.838;9.324;2022-07-29T12:35:02;8.07;;;3.00;;
17451;SDS011;8843;48.838;9.324;2022-07-29T12:37:32;6.93;;;3.07;;
17451;SDS011;8843;48.838;9.324;2022-07-29T12:40:00;3.40;;;2.70;;
17451;SDS011;8843;48.838;9.324;2022-07-29T12:42:27;5.10;;;2.93;;
17451;SDS011;8843;48.838;9.324;2022-07-29T12:44:54;4.27;;;2.40;;
17451;SDS011;8843;48.838;9.324;2022-07-29T12:47:21;3.13;;;2.80;;
17451;SDS011;8843;48.838;9.324;2022-07-29T12:49:49;2.70;;;2.47;;
17451;SDS011;8843;48.838;9.324;2022-07-29T12:52:29;3.50;;;2.70;;
17451;SDS011;8843;48.838;9.324;2022-07-29T12:54:59;2.70;;;2.50;;
17451;SDS011;8843;48.838;9.324;2022-07-29T12:57:27;3.93;;;2.50;;
17451;SDS011;8843;48.838;9.324;2022-07-29T13:00:02;3.03;;;2.23;;
17451;SDS011;8843;48.838;9.324;2022-07-29T13:02:30;2.57;;;2.37;;
17451;SDS011;8843;48.838;9.324;2022-07-29T13:04:58;3.47;;;2.60;;
17451;SDS011;8843;48.838;9.324;2022-07-29T13:07:26;4.53;;;2.40;;
17451;SDS011;8843;48.838;9.324;2022-07-29T13:09:58;4.90;;;2.17;;
17451;SDS011;8843;48.838;9.324;2022-07-29T13:12:39;2.50;;;2.30;;
17451;SDS011;8843;48.838;9.324;2022-07-29T13:15:26;2.50;;;2.20;;
17451;SDS011;8843;48.838;9.324;2022-07-29T13:17:53;2.97;;;2.07;;
17451;SDS011;8843;48.838;9.324;2022-07-29T13:20:23;4.03;;;2.53;;
17451;SDS011;8843;48.838;9.324;2022-07-29T13:22:52;2.40;;;2.23;;
17451;SDS011;8843;48.838;9.324;2022-07-29T13:25:24;2.57;;;2.37;;
17451;SDS011;8843;48.838;9.324;2022-07-29T13:27:52;3.33;;;2.53;;
17451;SDS011;8843;48.838;9.324;2022-07-29T13:30:20;2.93;;;2.60;;
17451;SDS011;8843;48.838;9.324;2022-07-29T13:32:48;3.13;;;2.37;;
17451;SDS011;8843;48.838;9.324;2022-07-29T13:35:16;4.37;;;2.43;;
17451;SDS011;8843;48.838;9.324;2022-07-29T13:37:43;2.40;;;2.20;;
17451;SDS011;8843;48.838;9.324;2022-07-29T13:40:10;3.57;;;2.57;;
17451;SDS011;8843;48.838;9.324;2022-07-29T13:42:40;4.03;;;2.57;;
17451;SDS011;8843;48.838;9.324;2022-07-29T13:45:08;4.40;;;2.60;;
17451;SDS011;8843;48.838;9.324;2022-07-29T13:47:36;3.33;;;2.80;;
17451;SDS011;8843;48.838;9.324;2022-07-29T13:50:03;4.77;;;3.00;;
17451;SDS011;8843;48.838;9.324;2022-07-29T13:52:31;3.27;;;2.53;;
17451;SDS011;8843;48.838;9.324;2022-07-29T13:54:59;6.83;;;2.60;;
17451;SDS011;8843;48.838;9.324;2022-07-29T13:57:26;4.40;;;2.90;;
17451;SDS011;8843;48.838;9.324;2022-07-29T13:59:54;3.13;;;2.70;;
17451;SDS011;8843;48.838;9.324;2022-07-29T14:02:21;3.47;;;3.17;;
17451;SDS011;8843;48.838;9.324;2022-07-29T14:04:49;2.90;;;2.70;;
17451;SDS011;8843;48.838;9.324;2022-07-29T14:07:16;3.30;;;3.00;;
17451;SDS011;8843;48.838;9.324;2022-07-29T14:09:43;4.00;;;3.20;;
17451;SDS011;8843;48.838;9.324;2022-07-29T14:12:10;3.63;;;2.80;;
17451;SDS011;8843;48.838;9.324;2022-07-29T14:14:37;4.33;;;3.37;;
17451;SDS011;8843;48.838;9.324;2022-07-29T14:17:05;5.80;;;3.60;;
17451;SDS011;8843;48.838;9.324;2022-07-29T14:19:32;4.53;;;3.40;;
17451;SDS011;8843;48.838;9.324;2022-07-29T14:22:02;3.73;;;3.00;;
17451;SDS011;8843;48.838;9.324;2022-07-29T14:24:30;5.17;;;3.50;;
17451;SDS011;8843;48.838;9.324;2022-07-29T14:26:57;3.77;;;3.47;;
17451;SDS011;8843;48.838;9.324;2022-07-29T14:29:24;5.03;;;3.63;;
17451;SDS011;8843;48.838;9.324;2022-07-29T14:31:51;6.17;;;3.33;;
17451;SDS011;8843;48.838;9.324;2022-07-29T14:34:19;5.07;;;3.80;;
17451;SDS011;8843;48.838;9.324;2022-07-29T14:36:46;4.53;;;3.43;;
17451;SDS011;8843;48.838;9.324;2022-07-29T14:39:13;5.37;;;3.47;;
17451;SDS011;8843;48.838;9.324;2022-07-29T14:41:41;4.40;;;3.47;;
17451;SDS011;8843;48.838;9.324;2022-07-29T14:44:08;5.00;;;4.00;;
17451;SDS011;8843;48.838;9.324;2022-07-29T14:46:35;5.37;;;3.60;;
17451;SDS011;8843;48.838;9.324;2022-07-29T14:49:02;5.00;;;3.97;;
17451;SDS011;8843;48.838;9.324;2022-07-29T14:51:31;5.57;;;4.30;;
17451;SDS011;8843;48.838;9.324;2022-07-29T14:53:58;5.07;;;3.60;;
17451;SDS011;8843;48.838;9.324;2022-07-29T14:56:25;5.57;;;3.53;;
17451;SDS011;8843;48.838;9.324;2022-07-29T14:58:52;5.10;;;3.90;;
17451;SDS011;8843;48.838;9.324;2022-07-29T15:01:19;5.30;;;4.13;;
17451;SDS011;8843;48.838;9.324;2022-07-29T15:03:46;4.60;;;4.20;;
17451;SDS011;8843;48.838;9.324;2022-07-29T15:06:13;5.07;;;4.10;;
17451;SDS011;8843;48.838;9.324;2022-07-29T15:08:41;6.57;;;4.13;;
17451;SDS011;8843;48.838;9.324;2022-07-29T15:11:08;5.13;;;4.07;;
17451;SDS011;8843;48.838;9.324;2022-07-29T15:13:35;5.33;;;4.10;;
17451;SDS011;8843;48.838;9.324;2022-07-29T15:16:02;5.87;;;4.43;;
17451;SDS011;8843;48.838;9.324;2022-07-29T15:18:30;7.00;;;4.27;;
17451;SDS011;8843;48.838;9.324;2022-07-29T15:20:57;3.80;;;3.47;;
17451;SDS011;8843;48.838;9.324;2022-07-29T15:23:25;4.73;;;4.33;;
17451;SDS011;8843;48.838;9.324;2022-07-29T15:25:53;5.40;;;3.97;;
17451;SDS011;8843;48.838;9.324;2022-07-29T15:28:20;4.70;;;3.90;;
17451;SDS011;8843;48.838;9.324;2022-07-29T15:30:47;5.70;;;4.33;;